Time;durP1;ratioP1;P1;durP2;ratioP2;P2;SDS_P1;SDS_P2;PMS_P1;PMS_P2;Temp;Humidity;BMP_temperature;BMP_pressure;BME280_temperature;BME280_humidity;BME280_pressure;Samples;Min_cycle;Max_cycle;Signal;HPM_P1;HPM_P2
2023/07/14 00:02:16;;;;;;;9.07;3.30;;;;;;;17.63;99.40;101618.66;5064318;28;20028;-80
2023/07/14 00:04:42;;;;;;;7.22;3.67;;;;;;;17.62;99.61;101614.19;5061774;28;20488;-80
2023/07/14 00:07:12;;;;;;;5.70;2.65;;;;;;;17.62;99.49;101614.19;5064687;28;20038;-80
2023/07/14 00:09:42;;;;;;;6.15;3.50;;;;;;;17.58;99.32;101607.75;5064671;28;20028;-80
2023/07/14 00:12:09;;;;;;;6.25;3.13;;;;;;;17.58;99.49;101610.59;5055977;28;20249;-80
2023/07/14 00:14:35;;;;;;;8.23;3.38;;;;;;;17.58;99.24;101613.44;5038482;28;20578;-80
2023/07/14 00:17:00;;;;;;;5.43;2.95;;;;;;;17.50;99.14;101609.00;5056177;28;20518;-80
2023/07/14 00:19:26;;;;;;;8.15;3.20;;;;;;;17.58;98.92;101616.25;5059606;28;20037;-80
2023/07/14 00:21:51;;;;;;;9.00;4.03;;;;;;;17.45;99.35;101606.56;5054826;28;20038;-80
2023/07/14 00:24:20;;;;;;;7.55;3.35;;;;;;;17.42;99.02;101607.41;5057988;28;20448;-80
2023/07/14 00:26:55;;;;;;;6.30;3.42;;;;;;;17.45;99.05;101596.03;5061200;28;20032;-80
2023/07/14 00:29:38;;;;;;;6.75;3.03;;;;;;;17.52;98.19;101605.75;5048937;28;20032;-80
2023/07/14 00:32:13;;;;;;;4.45;2.88;;;;;;;17.40;98.83;101587.19;5059492;28;20028;-80
2023/07/14 00:34:39;;;;;;;6.18;2.97;;;;;;;17.48;97.81;101594.44;5065080;28;20032;-80
2023/07/14 00:37:04;;;;;;;6.40;3.05;;;;;;;17.52;97.23;101592.41;5062996;28;20069;-80
2023/07/14 00:39:30;;;;;;;4.47;2.70;;;;;;;17.52;97.02;101594.41;5065890;28;20033;-80
2023/07/14 00:41:56;;;;;;;8.40;2.65;;;;;;;17.41;97.49;101597.28;5061289;28;20043;-80
2023/07/14 00:44:22;;;;;;;4.53;2.50;;;;;;;17.44;96.76;101593.66;5064769;28;20503;-80
2023/07/14 00:46:48;;;;;;;4.55;2.50;;;;;;;17.41;97.12;101585.97;5053823;28;20513;-79
2023/07/14 00:49:36;;;;;;;5.30;2.42;;;;;;;17.45;96.77;101578.25;5059445;28;20473;-80
2023/07/14 00:52:12;;;;;;;7.65;2.70;;;;;;;17.40;96.63;101584.34;5057351;28;20042;-80
2023/07/14 00:54:41;;;;;;;6.63;4.30;;;;;;;17.46;96.20;101585.56;5061930;28;20032;-80
2023/07/14 00:57:15;;;;;;;7.80;2.40;;;;;;;17.24;96.94;101568.63;5056730;28;20074;-80
2023/07/14 00:59:41;;;;;;;5.57;3.05;;;;;;;17.26;97.13;101583.16;5074709;28;20025;-80
2023/07/14 01:02:22;;;;;;;4.03;2.53;;;;;;;17.29;96.70;101581.56;5063374;28;20039;-80
2023/07/14 01:05:02;;;;;;;5.18;2.30;;;;;;;17.27;97.18;101590.44;5062897;28;20050;-80
2023/07/14 01:07:35;;;;;;;4.88;2.70;;;;;;;17.25;97.03;101586.41;5058458;28;20032;-80
2023/07/14 01:10:01;;;;;;;4.85;2.40;;;;;;;17.32;96.35;101586.38;5076138;28;20086;-80
2023/07/14 01:12:31;;;;;;;6.43;2.28;;;;;;;17.23;96.59;101588.84;5066686;28;20032;-80
2023/07/14 01:14:57;;;;;;;5.07;2.80;;;;;;;17.20;97.10;101587.63;5061923;28;20055;-79
2023/07/14 01:17:23;;;;;;;2.75;1.95;;;;;;;17.17;96.66;101576.31;5064367;28;20029;-79
2023/07/14 01:19:52;;;;;;;4.90;3.05;;;;;;;17.23;96.71;101581.16;5062888;28;20032;-80
2023/07/14 01:22:28;;;;;;;3.40;2.33;;;;;;;17.09;97.76;101578.34;5079329;28;20021;-79
2023/07/14 01:25:24;;;;;;;4.75;2.45;;;;;;;17.18;97.19;101580.75;5060381;28;20033;-80
2023/07/14 01:27:49;;;;;;;3.28;2.20;;;;;;;17.17;96.65;101581.97;5040807;28;20044;-79
2023/07/14 01:30:16;;;;;;;4.93;2.30;;;;;;;17.22;96.45;101588.03;5064032;28;20035;-79
2023/07/14 01:32:48;;;;;;;3.53;2.35;;;;;;;17.06;97.52;101579.97;5058254;28;20457;-80
2023/07/14 01:35:16;;;;;;;5.18;2.50;;;;;;;17.13;97.07;101584.81;5064885;28;20080;-79
2023/07/14 01:37:42;;;;;;;5.03;2.20;;;;;;;17.11;97.30;101580.78;5065004;28;20237;-80
2023/07/14 01:40:15;;;;;;;4.55;2.13;;;;;;;17.01;97.42;101571.06;5068456;28;20036;-79
2023/07/14 01:42:43;;;;;;;16.85;4.30;;;;;;;16.98;98.33;101571.91;5067512;28;20489;-80
2023/07/14 01:45:16;;;;;;;4.75;3.05;;;;;;;16.96;98.34;101575.13;5065635;28;20052;-80
2023/07/14 01:47:45;;;;;;;5.97;2.67;;;;;;;17.01;98.55;101574.72;5065940;28;20497;-80
2023/07/14 01:50:21;;;;;;;4.15;2.50;;;;;;;16.96;98.44;101574.31;5064986;28;20115;-80
2023/07/14 01:52:49;;;;;;;3.60;2.78;;;;;;;16.92;99.02;101573.53;5063553;28;20079;-80
2023/07/14 01:55:19;;;;;;;6.15;3.17;;;;;;;16.92;98.90;101574.31;5075301;28;20040;-79
2023/07/14 01:57:49;;;;;;;4.70;2.97;;;;;;;16.89;98.72;101568.66;5066189;28;20066;-80
2023/07/14 02:00:16;;;;;;;4.00;2.90;;;;;;;16.96;98.42;101579.97;5068956;28;20036;-79
2023/07/14 02:02:44;;;;;;;6.32;3.20;;;;;;;17.01;97.61;101571.06;5082368;28;20129;-80
2023/07/14 02:05:26;;;;;;;4.82;3.03;;;;;;;16.92;98.55;101567.88;5064656;28;20033;-79
2023/07/14 02:07:54;;;;;;;5.03;2.83;;;;;;;16.86;98.65;101564.63;5068973;28;20029;-80
2023/07/14 02:10:20;;;;;;;3.90;2.85;;;;;;;16.92;98.77;101565.84;5069196;28;20484;-79
2023/07/14 02:12:49;;;;;;;4.95;2.72;;;;;;;16.81;99.07;101556.56;5066465;28;20056;-79
2023/07/14 02:15:23;;;;;;;7.22;3.75;;;;;;;16.85;99.35;101563.03;5065294;28;20358;-80
2023/07/14 02:17:50;;;;;;;7.18;3.50;;;;;;;16.77;99.10;101556.53;5066008;28;20539;-79
2023/07/14 02:20:38;;;;;;;4.75;2.70;;;;;;;16.76;99.91;101557.75;5070087;28;20040;-80
2023/07/14 02:23:08;;;;;;;5.90;3.10;;;;;;;16.85;98.81;101554.53;5065628;28;20127;-79
2023/07/14 02:25:48;;;;;;;3.38;2.78;;;;;;;16.71;99.92;101544.00;5066918;28;20025;-80
2023/07/14 02:28:14;;;;;;;5.20;2.97;;;;;;;16.69;100.00;101549.25;5068060;28;20044;-79
2023/07/14 02:30:45;;;;;;;6.80;3.22;;;;;;;16.74;99.96;101551.69;5064740;28;20408;-79
2023/07/14 02:33:38;;;;;;;3.97;2.75;;;;;;;16.66;100.00;101545.22;5076067;28;20032;-79
2023/07/14 02:36:22;;;;;;;7.43;3.17;;;;;;;16.65;100.00;101545.63;5061656;28;20036;-79
2023/07/14 02:38:48;;;;;;;6.63;3.10;;;;;;;16.65;100.00;101540.78;5059263;28;20032;-79
2023/07/14 02:41:22;;;;;;;7.47;3.47;;;;;;;16.60;100.00;101534.72;5057494;28;20032;-79
2023/07/14 02:43:52;;;;;;;4.53;3.03;;;;;;;16.55;100.00;101533.13;5074918;28;20491;-79
2023/07/14 02:46:21;;;;;;;6.05;2.90;;;;;;;16.66;100.00;101545.22;5053803;28;20032;-79
2023/07/14 02:48:50;;;;;;;6.75;4.13;;;;;;;16.62;100.00;101537.97;5056779;28;20567;-79
2023/07/14 02:51:15;;;;;;;5.47;3.45;;;;;;;16.54;100.00;101536.34;5060517;28;20063;-79
2023/07/14 02:53:41;;;;;;;6.03;3.95;;;;;;;16.58;100.00;101542.81;5065785;28;20083;-80
2023/07/14 02:56:07;;;;;;;6.20;4.07;;;;;;;16.53;100.00;101534.72;5063185;28;20051;-79
2023/07/14 02:58:33;;;;;;;5.53;3.78;;;;;;;16.50;100.00;101535.53;5073159;28;20028;-79
2023/07/14 03:01:00;;;;;;;5.50;3.63;;;;;;;16.42;100.00;101524.25;5054469;28;20416;-80
2023/07/14 03:03:26;;;;;;;5.50;3.90;;;;;;;16.53;100.00;101532.72;5063550;28;20032;-79
2023/07/14 03:05:53;;;;;;;6.07;3.25;;;;;;;16.47;100.00;101542.81;5075775;28;20028;-79
2023/07/14 03:08:20;;;;;;;7.20;3.45;;;;;;;16.45;100.00;101540.38;5061457;28;20060;-79
2023/07/14 03:10:48;;;;;;;6.60;4.20;;;;;;;16.49;100.00;101533.94;5062073;28;20031;-79
2023/07/14 03:13:16;;;;;;;11.15;4.53;;;;;;;16.40;100.00;101537.97;5065766;28;20450;-79
2023/07/14 03:15:44;;;;;;;8.98;4.03;;;;;;;16.43;100.00;101537.13;5066437;28;20089;-79
2023/07/14 03:18:11;;;;;;;5.38;4.25;;;;;;;16.42;100.00;101538.38;5063754;28;20944;-79
2023/07/14 03:20:39;;;;;;;7.13;4.60;;;;;;;16.36;100.00;101539.97;5060829;28;20443;-80
2023/07/14 03:23:05;;;;;;;9.20;4.90;;;;;;;16.36;100.00;101537.16;5062578;28;20065;-79
2023/07/14 03:25:30;;;;;;;6.78;3.97;;;;;;;16.39;100.00;101529.88;5060329;28;20024;-79
2023/07/14 03:27:55;;;;;;;8.90;5.00;;;;;;;16.36;100.00;101536.31;5067219;28;20035;-79
2023/07/14 03:30:21;;;;;;;11.63;3.97;;;;;;;16.42;100.00;101532.72;5078083;28;20028;-79
2023/07/14 03:32:46;;;;;;;8.95;4.40;;;;;;;16.42;100.00;101538.38;5060680;28;20166;-80
2023/07/14 03:35:12;;;;;;;7.63;3.97;;;;;;;16.40;100.00;101535.13;5057733;28;20492;-80
2023/07/14 03:37:38;;;;;;;8.20;3.92;;;;;;;16.37;100.00;101533.09;5062527;28;20144;-80
2023/07/14 03:40:05;;;;;;;9.45;4.38;;;;;;;16.42;100.00;101529.06;5065395;28;20028;-79
2023/07/14 03:42:30;;;;;;;6.22;4.35;;;;;;;16.44;100.00;101532.28;5065177;28;20436;-79
2023/07/14 03:44:56;;;;;;;7.43;4.57;;;;;;;16.40;100.00;101523.00;5053030;28;20103;-79
2023/07/14 03:47:21;;;;;;;6.85;4.68;;;;;;;16.44;100.00;101521.00;5055797;28;20073;-79
2023/07/14 03:49:47;;;;;;;5.38;4.18;;;;;;;16.48;100.00;101521.00;5060090;28;20495;-80
2023/07/14 03:52:13;;;;;;;7.65;4.72;;;;;;;16.50;100.00;101521.41;5057603;28;20043;-79
2023/07/14 03:54:38;;;;;;;9.00;5.47;;;;;;;16.52;100.00;101518.97;5063904;28;20044;-79
2023/07/14 03:57:05;;;;;;;7.05;3.83;;;;;;;16.54;100.00;101525.03;5063726;28;20036;-79
2023/07/14 03:59:30;;;;;;;6.43;4.68;;;;;;;16.59;100.00;101527.44;5061409;28;20078;-79
2023/07/14 04:01:56;;;;;;;9.23;5.55;;;;;;;16.56;100.00;101525.44;5062640;28;20555;-80
2023/07/14 04:04:22;;;;;;;6.55;4.40;;;;;;;16.63;100.00;101516.94;5054305;28;20419;-80
2023/07/14 04:06:48;;;;;;;7.43;4.13;;;;;;;16.68;100.00;101522.22;5060815;28;20142;-79
2023/07/14 04:09:14;;;;;;;7.88;4.90;;;;;;;16.60;100.00;101520.59;5056803;28;20032;-79
2023/07/14 04:11:43;;;;;;;7.63;5.18;;;;;;;16.64;100.00;101512.94;5064812;28;20028;-80
2023/07/14 04:14:09;;;;;;;10.32;4.72;;;;;;;16.62;100.00;101518.19;5053566;28;20035;-80
2023/07/14 04:16:35;;;;;;;5.50;4.28;;;;;;;16.65;100.00;101517.34;5044436;28;20042;-80
2023/07/14 04:19:02;;;;;;;6.60;4.40;;;;;;;16.66;100.00;101518.97;5056630;28;20036;-80
2023/07/14 04:21:27;;;;;;;6.57;5.13;;;;;;;16.62;100.00;101518.19;5059806;28;20036;-79
2023/07/14 04:23:57;;;;;;;6.75;4.93;;;;;;;16.63;100.00;101528.25;5063627;28;20094;-80
2023/07/14 04:26:25;;;;;;;7.22;4.60;;;;;;;16.65;100.00;101520.19;5060130;28;20028;-80
2023/07/14 04:28:50;;;;;;;8.00;4.53;;;;;;;16.70;100.00;101522.63;5061973;28;20040;-80
2023/07/14 04:31:16;;;;;;;8.23;4.80;;;;;;;16.62;100.00;101526.66;5061585;28;20039;-80
2023/07/14 04:33:44;;;;;;;10.95;6.20;;;;;;;16.38;100.00;101517.78;5059316;28;20024;-80
2023/07/14 04:36:11;;;;;;;6.85;4.57;;;;;;;16.53;100.00;101529.06;5045932;28;20467;-80
2023/07/14 04:38:36;;;;;;;8.13;5.88;;;;;;;16.57;100.00;101515.75;5057193;28;20039;-80
2023/07/14 04:41:02;;;;;;;9.27;5.03;;;;;;;16.61;100.00;101514.56;5054781;28;20032;-80
2023/07/14 04:43:28;;;;;;;10.27;5.68;;;;;;;16.47;100.00;101514.53;5055524;28;20105;-80
2023/07/14 04:45:54;;;;;;;7.28;5.22;;;;;;;16.55;100.00;101510.50;5052545;28;21423;-80
2023/07/14 04:48:23;;;;;;;10.73;6.50;;;;;;;16.44;100.00;101510.50;5056828;28;20055;-80
2023/07/14 04:50:50;;;;;;;11.63;5.80;;;;;;;16.48;100.00;101510.50;5054069;28;20032;-80
2023/07/14 04:53:16;;;;;;;8.00;5.90;;;;;;;16.56;100.00;101505.66;5073475;28;20032;-79
2023/07/14 04:55:44;;;;;;;7.68;5.05;;;;;;;16.57;100.00;101508.09;5071587;28;20052;-79
2023/07/14 04:58:12;;;;;;;12.93;5.90;;;;;;;16.28;100.00;101507.28;5052105;28;20047;-79
2023/07/14 05:00:39;;;;;;;7.55;5.65;;;;;;;16.31;100.00;101502.81;5052255;28;20028;-80
2023/07/14 05:03:06;;;;;;;9.00;5.75;;;;;;;16.38;100.00;101516.94;5051891;28;20074;-79
2023/07/14 05:05:32;;;;;;;12.05;6.75;;;;;;;16.40;100.00;101509.72;5052983;28;20036;-79
2023/07/14 05:08:00;;;;;;;9.07;5.38;;;;;;;16.53;100.00;101512.94;5058282;28;20031;-79
2023/07/14 05:10:27;;;;;;;8.20;6.07;;;;;;;16.56;100.00;101502.84;5041522;28;20055;-79
2023/07/14 05:12:55;;;;;;;14.18;7.95;;;;;;;16.43;100.00;101511.72;5059795;28;20028;-79
2023/07/14 05:15:21;;;;;;;11.18;5.32;;;;;;;16.44;100.00;101499.22;5061398;28;20059;-79
2023/07/14 05:17:48;;;;;;;11.75;4.78;;;;;;;16.58;100.00;101500.41;5062959;28;20047;-79
2023/07/14 05:20:15;;;;;;;10.98;5.35;;;;;;;16.76;100.00;101495.56;5071848;28;20545;-80
2023/07/14 05:22:44;;;;;;;10.02;5.60;;;;;;;16.54;100.00;101491.13;5052239;28;20032;-80
2023/07/14 05:25:10;;;;;;;11.48;6.95;;;;;;;16.56;100.00;101494.34;5058493;28;20036;-81
2023/07/14 05:27:38;;;;;;;10.95;6.57;;;;;;;16.59;100.00;101496.34;5061766;28;20033;-79
2023/07/14 05:30:05;;;;;;;9.82;6.10;;;;;;;16.73;100.00;101498.38;5056930;28;20388;-81
2023/07/14 05:32:32;;;;;;;8.65;5.72;;;;;;;16.67;100.00;101495.97;5056082;28;20576;-81
2023/07/14 05:34:57;;;;;;;11.77;5.80;;;;;;;16.80;100.00;101493.56;5055004;28;20071;-81
2023/07/14 05:37:23;;;;;;;8.82;5.82;;;;;;;16.79;100.00;101493.94;5053863;28;20168;-80
2023/07/14 05:39:48;;;;;;;8.25;6.25;;;;;;;16.70;100.00;101488.69;5059378;28;20036;-80
2023/07/14 05:42:14;;;;;;;10.13;6.90;;;;;;;16.58;100.00;101497.59;5060693;28;20055;-80
2023/07/14 05:44:39;;;;;;;12.70;7.00;;;;;;;16.53;100.00;101479.03;5061571;28;20024;-80
2023/07/14 05:47:05;;;;;;;12.95;7.28;;;;;;;16.69;100.00;101487.06;5061036;28;20025;-81
2023/07/14 05:49:30;;;;;;;11.25;7.20;;;;;;;16.72;100.00;101491.94;5058957;28;20036;-80
2023/07/14 05:51:56;;;;;;;16.80;7.13;;;;;;;16.75;100.00;101488.28;5063047;28;20385;-80
2023/07/14 05:54:22;;;;;;;12.43;6.95;;;;;;;16.78;100.00;101484.66;5061837;28;20072;-80
2023/07/14 05:56:47;;;;;;;10.88;6.38;;;;;;;16.80;100.00;101479.44;5059472;28;20032;-80
2023/07/14 05:59:13;;;;;;;14.20;7.07;;;;;;;16.78;100.00;101487.47;5063155;28;20054;-80
2023/07/14 06:01:39;;;;;;;8.00;5.63;;;;;;;16.97;100.00;101480.59;5061102;28;20206;-81
2023/07/14 06:04:05;;;;;;;9.93;6.43;;;;;;;16.83;100.00;101481.44;5056711;28;20759;-81
2023/07/14 06:06:33;;;;;;;11.05;6.10;;;;;;;16.91;100.00;101470.09;5065468;28;20508;-82
2023/07/14 06:09:02;;;;;;;10.30;4.82;;;;;;;17.99;100.00;101481.78;5065706;28;20114;-77
2023/07/14 06:11:29;;;;;;;8.02;4.47;;;;;;;18.12;98.19;101482.09;5059003;28;20054;-77
2023/07/14 06:13:54;;;;;;;10.90;6.25;;;;;;;18.06;100.00;101482.53;5050917;28;20526;-77
2023/07/14 06:16:21;;;;;;;9.43;6.00;;;;;;;17.79;100.00;101472.97;5059329;28;20032;-77
2023/07/14 06:18:47;;;;;;;9.75;5.28;;;;;;;17.51;100.00;101473.94;5054573;28;20049;-77
2023/07/14 06:21:13;;;;;;;14.30;6.15;;;;;;;17.85;99.92;101471.34;5050938;28;20166;-77
2023/07/14 06:23:38;;;;;;;7.85;5.32;;;;;;;17.47;100.00;101468.28;5057333;28;20024;-77
2023/07/14 06:26:05;;;;;;;6.60;4.53;;;;;;;17.75;100.00;101466.53;5059823;28;20473;-77
2023/07/14 06:28:30;;;;;;;9.25;5.35;;;;;;;17.82;100.00;101466.50;5059143;28;20112;-77
2023/07/14 06:30:57;;;;;;;7.88;5.22;;;;;;;17.99;99.82;101459.13;5060373;28;20559;-77
2023/07/14 06:33:24;;;;;;;9.43;4.50;;;;;;;18.40;98.47;101470.53;5062910;28;20029;-77
2023/07/14 06:35:50;;;;;;;9.32;3.78;;;;;;;18.85;92.81;101467.72;5063230;28;20530;-77
2023/07/14 06:38:15;;;;;;;6.30;3.47;;;;;;;18.60;95.90;101469.97;5056557;28;20029;-77
2023/07/14 06:40:41;;;;;;;6.65;3.47;;;;;;;18.48;91.67;101468.44;5060923;28;20036;-77
2023/07/14 06:43:09;;;;;;;6.18;3.22;;;;;;;18.13;94.10;101475.22;5061086;28;20406;-77
2023/07/14 06:45:35;;;;;;;5.90;3.20;;;;;;;18.70;92.59;101466.25;5064216;28;20480;-77
2023/07/14 06:48:01;;;;;;;5.68;3.22;;;;;;;18.61;91.72;101461.03;5062896;28;20437;-77
2023/07/14 06:50:27;;;;;;;5.05;3.10;;;;;;;18.80;91.63;101461.69;5062421;28;20036;-77
2023/07/14 06:52:52;;;;;;;6.10;3.05;;;;;;;18.80;89.00;101467.38;5056759;28;20511;-77
2023/07/14 06:55:18;;;;;;;7.65;3.05;;;;;;;18.86;91.31;101465.69;5062024;28;20040;-77
2023/07/14 06:57:44;;;;;;;8.68;3.25;;;;;;;18.81;91.78;101466.97;5058601;28;20116;-77
2023/07/14 07:00:12;;;;;;;6.03;3.03;;;;;;;18.47;90.73;101461.97;5060602;28;20029;-77
2023/07/14 07:02:39;;;;;;;3.92;2.38;;;;;;;19.25;89.56;101453.09;5061767;28;20035;-77
2023/07/14 07:05:06;;;;;;;6.13;3.08;;;;;;;19.08;87.48;101450.03;5069552;28;20121;-77
2023/07/14 07:07:33;;;;;;;2.92;2.63;;;;;;;18.72;87.98;101451.63;5059461;28;20964;-77
2023/07/14 07:09:58;;;;;;;4.95;2.42;;;;;;;18.63;91.18;101449.28;5058465;28;20032;-77
2023/07/14 07:12:24;;;;;;;4.82;2.42;;;;;;;19.30;87.74;101456.25;5068460;28;20032;-77
2023/07/14 07:14:50;;;;;;;5.28;2.47;;;;;;;19.09;86.17;101453.69;5059371;28;20477;-77
2023/07/14 07:17:16;;;;;;;4.70;2.55;;;;;;;18.76;88.11;101444.69;5059097;28;20083;-77
2023/07/14 07:19:41;;;;;;;5.75;2.90;;;;;;;19.34;88.01;101446.91;5064330;28;20532;-77
2023/07/14 07:22:08;;;;;;;7.53;2.88;;;;;;;19.54;86.20;101449.88;5061759;28;20488;-77
2023/07/14 07:24:33;;;;;;;3.85;2.17;;;;;;;19.68;85.55;101447.63;5062377;28;20108;-77
2023/07/14 07:27:00;;;;;;;5.88;2.95;;;;;;;18.79;90.25;101448.75;5065585;28;20107;-77
2023/07/14 07:29:25;;;;;;;9.73;3.00;;;;;;;18.81;90.31;101446.31;5064592;28;20036;-77
2023/07/14 07:31:51;;;;;;;4.38;2.53;;;;;;;19.15;87.91;101440.63;5076648;28;20185;-77
2023/07/14 07:34:16;;;;;;;4.40;2.40;;;;;;;19.43;86.92;101439.47;5058726;28;20029;-78
2023/07/14 07:36:42;;;;;;;4.93;2.55;;;;;;;19.80;84.81;101436.97;5064460;28;20079;-77
2023/07/14 07:39:07;;;;;;;6.75;4.05;;;;;;;19.67;85.87;101434.69;5063309;28;20021;-77
2023/07/14 07:41:33;;;;;;;4.53;2.97;;;;;;;20.19;84.20;101429.84;5061321;28;20472;-77
2023/07/14 07:44:00;;;;;;;5.53;3.33;;;;;;;19.94;86.62;101431.06;5061264;28;20047;-77
2023/07/14 07:46:27;;;;;;;7.88;2.95;;;;;;;19.42;89.50;101431.41;5062714;28;20037;-77
2023/07/14 07:48:53;;;;;;;7.80;3.30;;;;;;;19.20;88.27;101437.31;5068226;28;20027;-78
2023/07/14 07:51:19;;;;;;;8.55;2.95;;;;;;;19.72;87.58;101424.91;5068234;28;20028;-77
2023/07/14 07:53:44;;;;;;;6.60;3.20;;;;;;;19.70;87.88;101427.38;5062414;28;20642;-77
2023/07/14 07:56:10;;;;;;;7.30;4.07;;;;;;;19.89;87.51;101423.03;5071271;28;20039;-77
2023/07/14 07:58:36;;;;;;;5.78;3.47;;;;;;;19.81;88.83;101416.63;5066935;28;20059;-77
2023/07/14 08:01:04;;;;;;;4.90;3.58;;;;;;;19.98;88.52;101413.97;5063427;28;20020;-77
2023/07/14 08:03:31;;;;;;;4.90;3.28;;;;;;;20.03;87.33;101422.81;5063615;28;20039;-77
2023/07/14 08:06:14;;;;;;;2.72;2.38;;;;;;;20.04;85.72;101418.72;5066333;28;20107;-77
2023/07/14 08:08:40;;;;;;;5.90;3.17;;;;;;;20.15;85.26;101415.69;5060169;28;20070;-77
2023/07/14 08:11:10;;;;;;;7.57;2.83;;;;;;;20.03;86.37;101410.66;5072910;28;20060;-77
2023/07/14 08:13:36;;;;;;;7.35;3.10;;;;;;;19.84;87.89;101415.00;5063006;28;20078;-77
2023/07/14 08:16:01;;;;;;;6.30;2.90;;;;;;;20.11;86.08;101406.41;5058458;28;20476;-77
2023/07/14 08:18:27;;;;;;;7.90;3.08;;;;;;;20.23;84.02;101407.84;5068311;28;20039;-77
2023/07/14 08:20:53;;;;;;;4.53;2.90;;;;;;;19.70;86.70;101401.81;5059142;28;20048;-75
2023/07/14 08:23:21;;;;;;;4.97;2.47;;;;;;;19.61;84.04;101410.84;5063786;28;20029;-77
2023/07/14 08:25:54;;;;;;;5.88;2.90;;;;;;;19.59;82.60;101393.41;5058368;28;20454;-77
2023/07/14 08:28:20;;;;;;;6.25;3.03;;;;;;;20.08;83.21;101402.41;5063001;28;20069;-77
2023/07/14 08:30:50;;;;;;;5.40;2.78;;;;;;;20.40;86.81;101412.41;5057439;28;20033;-77
2023/07/14 08:33:20;;;;;;;4.68;2.65;;;;;;;20.36;80.88;101411.69;5066347;28;20029;-77
2023/07/14 08:35:49;;;;;;;6.95;2.55;;;;;;;20.25;79.82;101396.88;5059395;28;20025;-77
2023/07/14 08:38:15;;;;;;;5.07;2.70;;;;;;;20.71;82.22;101404.56;5066266;28;20111;-77
2023/07/14 08:40:47;;;;;;;4.55;2.95;;;;;;;20.13;79.90;101395.44;5058814;28;20052;-77
2023/07/14 08:43:39;;;;;;;3.15;2.47;;;;;;;20.58;82.31;101399.97;5061768;28;20447;-77
2023/07/14 08:46:26;;;;;;;4.82;3.15;;;;;;;20.65;81.54;101405.50;5060949;28;20036;-77
2023/07/14 08:49:16;;;;;;;4.78;2.65;;;;;;;20.81;77.76;101401.97;5064037;28;20036;-77
2023/07/14 08:51:44;;;;;;;5.95;2.47;;;;;;;20.73;81.73;101398.44;5062708;28;20068;-77
2023/07/14 08:54:19;;;;;;;5.38;2.45;;;;;;;20.47;78.42;101406.63;5060435;28;20390;-77
2023/07/14 08:56:45;;;;;;;3.78;2.65;;;;;;;20.59;80.02;101396.66;5059751;28;20021;-77
2023/07/14 08:59:18;;;;;;;6.75;3.50;;;;;;;20.78;82.95;101400.78;5062114;28;20039;-77
2023/07/14 09:01:53;;;;;;;6.28;2.47;;;;;;;20.63;80.89;101390.91;5057605;28;20111;-77
2023/07/14 09:04:32;;;;;;;7.03;2.88;;;;;;;20.83;77.61;101394.59;5061747;28;20033;-77
2023/07/14 09:06:57;;;;;;;6.13;2.75;;;;;;;20.91;79.85;101387.53;5060711;28;20052;-77
2023/07/14 09:09:32;;;;;;;4.13;2.55;;;;;;;20.68;76.90;101391.22;5058315;28;20111;-77
2023/07/14 09:12:16;;;;;;;4.63;2.53;;;;;;;20.57;77.21;101386.94;5059713;28;20067;-77
2023/07/14 09:15:00;;;;;;;3.97;2.53;;;;;;;21.00;73.79;101391.84;5059792;28;20493;-77
2023/07/14 09:17:51;;;;;;;6.03;2.40;;;;;;;21.48;74.31;101390.41;5057914;28;20029;-77
2023/07/14 09:20:41;;;;;;;4.25;2.72;;;;;;;21.05;73.15;101382.78;5063861;28;20040;-77
2023/07/14 09:23:06;;;;;;;6.13;2.53;;;;;;;20.64;73.68;101386.81;5058292;28;20036;-77
2023/07/14 09:25:50;;;;;;;5.05;2.20;;;;;;;20.47;77.09;101372.50;5055040;28;20029;-77
2023/07/14 09:28:40;;;;;;;4.75;3.00;;;;;;;20.71;80.58;101376.13;5060065;28;20510;-77
2023/07/14 09:31:37;;;;;;;3.65;2.30;;;;;;;20.92;78.46;101382.63;5057689;28;20533;-76
2023/07/14 09:34:09;;;;;;;3.88;2.63;;;;;;;20.88;76.25;101379.84;5062415;28;20561;-77
2023/07/14 09:36:38;;;;;;;3.80;2.50;;;;;;;21.07;74.59;101380.28;5060457;28;20480;-77
2023/07/14 09:39:07;;;;;;;6.28;2.63;;;;;;;20.69;79.82;101366.44;5057702;28;20404;-77
2023/07/14 09:41:33;;;;;;;4.15;2.60;;;;;;;20.74;81.66;101362.25;5060378;28;20530;-77
2023/07/14 09:43:59;;;;;;;4.45;2.30;;;;;;;20.89;76.37;101377.81;5058172;28;20036;-77
2023/07/14 09:46:28;;;;;;;9.63;2.70;;;;;;;21.09;75.59;101380.66;5054471;28;20056;-77
2023/07/14 09:49:09;;;;;;;6.25;2.28;;;;;;;21.51;78.91;101373.22;5062844;28;20044;-77
2023/07/14 09:51:36;;;;;;;5.15;2.35;;;;;;;21.62;72.20;101372.97;5061204;28;20032;-77
2023/07/14 09:54:12;;;;;;;3.72;2.40;;;;;;;21.46;72.65;101378.63;5075061;28;20044;-77
2023/07/14 09:56:42;;;;;;;5.15;2.22;;;;;;;21.59;73.34;101378.75;5059433;28;20031;-77
2023/07/14 09:59:22;;;;;;;6.78;2.33;;;;;;;21.46;81.53;101376.63;5077030;28;20041;-77
2023/07/14 10:01:58;;;;;;;7.78;3.97;;;;;;;21.46;76.31;101372.94;5064713;28;20111;-77
2023/07/14 10:04:30;;;;;;;6.32;2.83;;;;;;;20.96;78.33;101369.13;5059930;28;20431;-77
2023/07/14 10:07:24;;;;;;;6.50;2.95;;;;;;;20.95;77.29;101369.56;5061069;28;20476;-77
2023/07/14 10:09:58;;;;;;;6.03;2.60;;;;;;;21.00;82.81;101369.88;5060923;28;20550;-77
2023/07/14 10:12:24;;;;;;;5.57;2.58;;;;;;;20.97;76.43;101376.41;5060040;28;20036;-77
2023/07/14 10:14:50;;;;;;;4.47;3.38;;;;;;;21.06;76.80;101361.59;5063365;28;20036;-77
2023/07/14 10:17:25;;;;;;;4.38;2.60;;;;;;;21.39;76.95;101358.84;5064146;28;20025;-77
2023/07/14 10:19:51;;;;;;;5.50;2.90;;;;;;;21.20;76.83;101371.88;5057402;28;20032;-77
2023/07/14 10:22:23;;;;;;;5.15;2.92;;;;;;;21.09;79.40;101363.56;5082105;28;20581;-77
2023/07/14 10:24:56;;;;;;;;;;;;;;;21.39;83.65;101356.00;5066323;28;20588;-77
2023/07/14 10:27:27;;;;;;;;;;;;;;;20.86;78.10;101362.41;5067026;28;19924;-77
2023/07/14 10:30:27;;;;;;;7.32;3.33;;;;;;;20.84;80.03;101361.25;5079571;28;20385;-77
2023/07/14 10:32:57;;;;;;;5.25;2.97;;;;;;;20.85;82.70;101352.28;5062738;28;20507;-77
2023/07/14 10:35:29;;;;;;;4.70;3.28;;;;;;;21.36;77.83;101354.84;5078647;28;20083;-77
2023/07/14 10:38:14;;;;;;;4.72;3.13;;;;;;;21.58;81.83;101340.91;5067554;28;20032;-77
2023/07/14 10:40:51;;;;;;;4.78;2.83;;;;;;;21.56;75.14;101354.81;5068546;28;20036;-77
2023/07/14 10:43:20;;;;;;;8.57;3.58;;;;;;;21.33;80.97;101352.88;5055933;28;20036;-77
2023/07/14 10:45:52;;;;;;;7.28;3.60;;;;;;;21.27;82.23;101335.53;5059156;28;20037;-77
2023/07/14 10:48:24;;;;;;;8.15;4.72;;;;;;;20.88;77.68;101339.22;5066125;28;20028;-77
2023/07/14 10:51:00;;;;;;;7.03;3.17;;;;;;;20.87;80.76;101348.97;5065790;28;20495;-76
2023/07/14 10:53:42;;;;;;;5.35;3.72;;;;;;;21.20;79.61;101343.41;5064019;28;20484;-77
2023/07/14 10:56:22;;;;;;;;;;;;;;;21.50;77.69;101348.03;5063729;28;20064;-77
2023/07/14 10:58:55;;;;;;;8.00;4.32;;;;;;;21.30;82.26;101340.31;5065147;28;19920;-77
2023/07/14 11:01:49;;;;;;;8.95;3.95;;;;;;;21.29;77.59;101338.72;5055621;28;20047;-77
2023/07/14 11:04:31;;;;;;;7.65;4.45;;;;;;;21.01;78.69;101337.31;5060928;28;20524;-77
2023/07/14 11:06:57;;;;;;;9.23;4.50;;;;;;;20.94;81.41;101328.13;5065968;28;20121;-77
2023/07/14 11:09:23;;;;;;;7.75;4.28;;;;;;;21.14;83.34;101328.88;5062600;28;20537;-77
2023/07/14 11:12:08;;;;;;;6.20;3.85;;;;;;;21.34;78.33;101331.72;5064390;28;20051;-77
2023/07/14 11:14:53;;;;;;;5.30;3.80;;;;;;;21.02;78.55;101332.41;5066409;28;20052;-77
2023/07/14 11:17:18;;;;;;;5.68;3.83;;;;;;;21.37;76.07;101327.16;5063039;28;20032;-78
2023/07/14 11:20:23;;;;;;;9.52;4.35;;;;;;;21.45;77.36;101334.34;5067542;28;20051;-77
2023/07/14 11:23:15;;;;;;;5.72;4.03;;;;;;;21.86;74.58;101328.03;5054986;28;20359;-77
2023/07/14 11:26:02;;;;;;;;;;;;;;;21.82;76.27;101327.31;5065009;28;20052;-77
2023/07/14 11:28:43;;;;;;;9.95;4.20;;;;;;;21.86;75.74;101328.03;5066846;28;19966;-77
2023/07/14 11:31:29;;;;;;;4.43;3.40;;;;;;;22.24;71.09;101318.94;5059183;28;20068;-77
2023/07/14 11:34:23;;;;;;;7.90;3.80;;;;;;;22.44;72.78;101315.94;5058913;28;20560;-77
2023/07/14 11:36:58;;;;;;;6.97;4.05;;;;;;;22.13;72.40;101312.69;5057743;28;20144;-77